Terminal Aerodrome Forecast
Issued by NWS

Current Version | Previous Version | Text Only | Print | Product List | Glossary On
Versions: 1 2 3 4 5 6 7 8 9 10 11 12 13 14 15 16 17 18 19 20 21 22 23 24 25 26
000
FTUS43 KDVN 301738
TAFCID
TAF
KCID 301738Z 3018/0118 07016G24KT 4SM BR OVC006
     FM301900 07017G25KT 4SM SHRA BR OVC007
     FM302200 08018G27KT 5SM BR OVC007
      TEMPO 3023/0103 4SM TSRA BR OVC005CB
     FM010400 16012KT 6SM -DZ BR OVC009
     FM011400 20010KT 6SM BR OVC008=

USA.gov is the U.S. government's official web portal to all federal, state and local government web resources and services.